Time;durP1;ratioP1;P1;durP2;ratioP2;P2;SDS_P1;SDS_P2;PMS_P1;PMS_P2;Temp;Humidity;BMP_temperature;BMP_pressure;BME280_temperature;BME280_humidity;BME280_pressure;Samples;Min_cycle;Max_cycle;Signal;HPM_P1;HPM_P2
2021/06/26 00:00:51;;;;;;;17.85;10.75;;;;;;;16.50;71.45;101613.91;5044616;28;20095;-72
2021/06/26 00:03:21;;;;;;;14.75;9.70;;;;;;;16.49;71.72;101614.88;5044718;28;20088;-72
2021/06/26 00:05:47;;;;;;;15.63;10.65;;;;;;;16.48;71.73;101615.88;5032915;28;20026;-72
2021/06/26 00:08:13;;;;;;;20.42;11.38;;;;;;;16.48;71.60;101610.66;5025128;28;20029;-72
2021/06/26 00:10:39;;;;;;;17.55;11.55;;;;;;;16.46;71.86;101614.41;5029945;28;20724;-72
2021/06/26 00:13:05;;;;;;;17.33;11.45;;;;;;;16.44;72.08;101611.97;5049532;28;20055;-72
2021/06/26 00:15:30;;;;;;;17.33;11.35;;;;;;;16.42;72.30;101610.50;5031471;28;20511;-72
2021/06/26 00:17:56;;;;;;;17.45;11.70;;;;;;;16.39;72.29;101614.31;5016179;28;20458;-72
2021/06/26 00:20:21;;;;;;;19.42;13.18;;;;;;;16.39;72.08;101610.84;5048126;28;20056;-72
2021/06/26 00:22:47;;;;;;;19.13;11.90;;;;;;;16.37;72.12;101615.44;5048494;28;20033;-72
2021/06/26 00:25:13;;;;;;;19.73;11.90;;;;;;;16.35;72.37;101608.59;5027971;28;20071;-72
2021/06/26 00:27:38;;;;;;;16.88;11.38;;;;;;;16.30;72.50;101608.31;5046485;28;20111;-72
2021/06/26 00:30:04;;;;;;;19.30;12.27;;;;;;;16.29;72.52;101618.94;5040986;28;20029;-72
2021/06/26 00:32:30;;;;;;;18.05;12.73;;;;;;;16.26;72.40;101609.66;5047133;28;20049;-72
2021/06/26 00:34:55;;;;;;;18.33;13.00;;;;;;;16.26;72.53;101614.06;5055788;28;20084;-72
2021/06/26 00:37:20;;;;;;;20.80;11.65;;;;;;;16.24;72.58;101605.59;5046465;28;20107;-71
2021/06/26 00:39:47;;;;;;;19.77;12.25;;;;;;;16.23;72.60;101611.78;5030370;28;20036;-72
2021/06/26 00:42:12;;;;;;;21.05;13.05;;;;;;;16.21;72.80;101613.78;5053087;28;20491;-72
2021/06/26 00:44:38;;;;;;;19.65;11.98;;;;;;;16.19;72.70;101607.91;5048700;28;20041;-72
2021/06/26 00:47:11;;;;;;;17.85;12.35;;;;;;;16.14;73.11;101608.41;5030320;28;20044;-72
2021/06/26 00:49:38;;;;;;;25.80;11.98;;;;;;;16.11;73.21;101604.34;5038857;28;20043;-72
2021/06/26 00:52:04;;;;;;;16.08;11.48;;;;;;;16.09;72.96;101610.75;5051121;28;20037;-72
2021/06/26 00:54:30;;;;;;;19.40;12.63;;;;;;;16.07;72.97;101602.25;5046617;28;20369;-72
2021/06/26 00:56:57;;;;;;;17.67;12.80;;;;;;;16.05;72.81;101605.03;5023177;28;20042;-72
2021/06/26 00:59:23;;;;;;;17.05;12.07;;;;;;;16.03;72.74;101606.19;5030965;28;20037;-72
2021/06/26 01:01:48;;;;;;;20.90;12.30;;;;;;;16.00;72.98;101611.78;5033173;28;20039;-72
2021/06/26 01:04:14;;;;;;;20.63;12.57;;;;;;;15.93;72.95;101604.59;5048834;28;20032;-72
2021/06/26 01:06:39;;;;;;;18.65;11.63;;;;;;;15.91;72.85;101606.56;5048657;28;20033;-72
2021/06/26 01:09:06;;;;;;;19.90;12.88;;;;;;;15.89;72.94;101605.94;5047850;28;20031;-72
2021/06/26 01:11:31;;;;;;;17.55;11.98;;;;;;;15.86;73.38;101605.44;5030634;28;20040;-72
2021/06/26 01:13:58;;;;;;;21.25;13.80;;;;;;;15.81;73.58;101608.59;5028002;28;20033;-72
2021/06/26 01:16:27;;;;;;;20.52;13.95;;;;;;;15.73;74.08;101611.22;5029951;28;20028;-72
2021/06/26 01:18:52;;;;;;;18.55;12.20;;;;;;;15.70;74.27;101608.94;5030395;28;20086;-72
2021/06/26 01:21:18;;;;;;;19.55;11.77;;;;;;;15.69;74.33;101618.59;5047574;28;20091;-72
2021/06/26 01:23:50;;;;;;;17.90;12.07;;;;;;;15.70;74.17;101625.44;5029029;28;20037;-72
2021/06/26 01:26:16;;;;;;;21.55;13.05;;;;;;;15.70;74.17;101625.44;5012883;28;20502;-71
2021/06/26 01:28:42;;;;;;;18.85;13.25;;;;;;;15.71;74.15;101624.47;5041648;28;20113;-72
2021/06/26 01:31:08;;;;;;;19.67;12.30;;;;;;;15.71;74.52;101624.47;5027946;28;20033;-72
2021/06/26 01:33:34;;;;;;;18.42;12.68;;;;;;;15.71;74.59;101619.22;5047226;28;20075;-72
2021/06/26 01:35:59;;;;;;;19.83;13.27;;;;;;;15.67;74.83;101609.25;5029395;28;20095;-72
2021/06/26 01:38:25;;;;;;;18.48;12.65;;;;;;;15.63;75.17;101608.78;5037895;28;20029;-72
2021/06/26 01:40:51;;;;;;;20.15;13.40;;;;;;;15.60;75.44;101610.94;5048018;28;20479;-72
2021/06/26 01:43:16;;;;;;;17.45;11.20;;;;;;;15.56;75.39;101602.63;5030403;28;20526;-72
2021/06/26 01:45:41;;;;;;;19.63;13.05;;;;;;;15.56;75.44;101605.25;5015946;28;20043;-72
2021/06/26 01:48:07;;;;;;;18.10;11.85;;;;;;;15.56;75.10;101600.03;5048340;28;20051;-72
2021/06/26 01:50:33;;;;;;;21.95;14.13;;;;;;;15.57;74.98;101605.06;5047497;28;20112;-72
2021/06/26 01:53:02;;;;;;;19.73;14.15;;;;;;;15.58;74.92;101614.53;5033081;28;20059;-72
2021/06/26 01:55:29;;;;;;;18.63;13.30;;;;;;;15.60;75.07;101608.34;5030046;28;20221;-72
2021/06/26 01:57:58;;;;;;;20.80;13.63;;;;;;;15.56;75.29;101606.06;5028822;28;20110;-72
2021/06/26 02:00:25;;;;;;;17.73;12.00;;;;;;;15.49;75.22;101607.69;5019940;28;20799;-72
2021/06/26 02:02:51;;;;;;;20.27;12.25;;;;;;;15.38;75.55;101608.88;5022278;28;20415;-72
2021/06/26 02:05:18;;;;;;;19.38;11.80;;;;;;;15.30;76.12;101611.53;5046916;28;20408;-72
2021/06/26 02:07:47;;;;;;;17.80;12.13;;;;;;;15.21;76.59;101606.50;5025657;28;20124;-72
2021/06/26 02:10:16;;;;;;;17.73;12.73;;;;;;;15.14;77.00;101603.72;5048035;28;20055;-72
2021/06/26 02:12:42;;;;;;;24.70;15.38;;;;;;;15.08;76.98;101607.00;5047001;28;20095;-72
2021/06/26 02:15:09;;;;;;;19.63;12.23;;;;;;;15.04;76.92;101603.91;5023776;28;20395;-72
2021/06/26 02:17:38;;;;;;;16.95;11.40;;;;;;;14.97;77.27;101601.16;5052371;28;20124;-72
2021/06/26 02:20:07;;;;;;;22.38;13.80;;;;;;;14.93;77.31;101597.22;5028057;28;20485;-72
2021/06/26 02:22:33;;;;;;;20.95;11.73;;;;;;;14.85;77.84;101592.00;5044671;28;20076;-72
2021/06/26 02:25:03;;;;;;;17.45;12.07;;;;;;;14.83;77.83;101598.38;5047515;28;20068;-72
2021/06/26 02:27:28;;;;;;;21.35;13.55;;;;;;;14.87;77.69;101608.31;5047278;28;20487;-72
2021/06/26 02:29:54;;;;;;;23.83;14.02;;;;;;;14.92;77.27;101598.22;5025583;28;20047;-72
2021/06/26 02:32:19;;;;;;;18.08;13.38;;;;;;;14.96;76.98;101594.28;5030252;28;20126;-72
2021/06/26 02:34:44;;;;;;;21.08;14.18;;;;;;;14.98;76.60;101605.38;5027493;28;20021;-71
2021/06/26 02:37:10;;;;;;;24.25;14.75;;;;;;;15.02;76.95;101605.06;5047087;28;20025;-72
2021/06/26 02:39:35;;;;;;;24.80;14.55;;;;;;;15.04;76.55;101598.69;5029065;28;20036;-72
2021/06/26 02:42:02;;;;;;;24.23;14.80;;;;;;;15.05;76.24;101600.31;5047270;28;20043;-72
2021/06/26 02:44:28;;;;;;;22.90;15.15;;;;;;;15.05;76.28;101609.94;5047485;28;20041;-72
2021/06/26 02:46:53;;;;;;;21.30;14.40;;;;;;;15.05;76.59;101605.53;5030459;28;20033;-72
2021/06/26 02:49:19;;;;;;;23.38;13.65;;;;;;;15.04;76.73;101590.03;5041740;28;20059;-72
2021/06/26 02:51:44;;;;;;;23.65;13.85;;;;;;;15.03;76.59;101598.84;5035101;28;20049;-72
2021/06/26 02:54:10;;;;;;;23.33;14.43;;;;;;;15.02;76.27;101592.81;5029121;28;20041;-72
2021/06/26 02:56:38;;;;;;;19.88;13.30;;;;;;;15.01;76.27;101593.78;5046695;28;20048;-72
2021/06/26 02:59:07;;;;;;;25.20;15.65;;;;;;;14.97;76.28;101593.31;5027175;28;20052;-72
2021/06/26 03:01:32;;;;;;;23.98;14.65;;;;;;;14.96;76.44;101596.09;5046354;28;20036;-72
2021/06/26 03:04:01;;;;;;;25.63;15.20;;;;;;;14.88;76.69;101601.28;5023337;28;20195;-72
2021/06/26 03:06:27;;;;;;;22.20;15.23;;;;;;;14.78;77.23;101598.88;5045276;28;20044;-72
2021/06/26 03:08:58;;;;;;;21.10;15.07;;;;;;;14.70;77.61;101591.84;5048516;28;20029;-73
2021/06/26 03:11:24;;;;;;;23.05;15.10;;;;;;;14.70;77.37;101586.63;5038822;28;20043;-72
2021/06/26 03:13:49;;;;;;;23.33;14.90;;;;;;;14.72;77.48;101594.31;5049735;28;20033;-72
2021/06/26 03:16:15;;;;;;;22.33;15.15;;;;;;;14.74;76.94;101595.75;5050662;28;20043;-72
2021/06/26 03:18:44;;;;;;;24.30;14.43;;;;;;;14.76;76.88;101596.41;5047651;28;20024;-72
2021/06/26 03:21:12;;;;;;;21.10;14.00;;;;;;;14.76;76.83;101596.41;5044394;28;20495;-72
2021/06/26 03:23:40;;;;;;;20.73;13.82;;;;;;;14.75;76.68;101601.81;5037125;28;20037;-72
2021/06/26 03:26:05;;;;;;;20.70;14.02;;;;;;;14.75;76.62;101604.44;5031832;28;20162;-72
2021/06/26 03:28:32;;;;;;;21.85;13.85;;;;;;;14.73;76.63;101604.59;5025184;28;20540;-72
2021/06/26 03:30:58;;;;;;;22.75;14.63;;;;;;;14.73;76.37;101607.19;5014702;28;20209;-72
2021/06/26 03:33:23;;;;;;;26.25;15.27;;;;;;;14.73;76.44;101603.75;5031757;28;20025;-72
2021/06/26 03:35:49;;;;;;;22.52;14.63;;;;;;;14.70;76.71;101611.94;5023682;28;20029;-72
2021/06/26 03:38:14;;;;;;;26.38;14.60;;;;;;;14.60;77.08;101604.28;5031269;28;20469;-72
2021/06/26 03:40:39;;;;;;;23.20;13.45;;;;;;;14.49;77.56;101609.78;5032082;28;20703;-72
2021/06/26 03:43:05;;;;;;;21.58;13.98;;;;;;;14.43;77.69;101605.19;5035078;28;20120;-72
2021/06/26 03:45:31;;;;;;;24.27;14.50;;;;;;;14.42;77.68;101606.97;5050000;28;20462;-73
2021/06/26 03:47:56;;;;;;;24.30;15.98;;;;;;;14.43;77.67;101607.78;5026670;28;20037;-72
2021/06/26 03:50:22;;;;;;;25.38;16.00;;;;;;;14.44;77.94;101615.47;5032274;28;20087;-72
2021/06/26 03:52:47;;;;;;;24.35;16.40;;;;;;;14.46;77.78;101605.69;5048453;28;20063;-72
2021/06/26 03:55:13;;;;;;;24.17;14.77;;;;;;;14.47;77.75;101611.72;5031400;28;20048;-72
2021/06/26 03:57:39;;;;;;;23.75;15.23;;;;;;;14.49;77.79;101613.19;5030717;28;20047;-73
2021/06/26 04:00:08;;;;;;;23.67;15.00;;;;;;;14.46;78.03;101604.88;5032839;28;20107;-72
2021/06/26 04:02:34;;;;;;;27.45;18.30;;;;;;;14.44;78.01;101615.47;5032995;28;20453;-72
2021/06/26 04:05:00;;;;;;;22.35;14.50;;;;;;;14.39;78.27;101615.13;5049993;28;20024;-72
2021/06/26 04:07:25;;;;;;;25.15;15.45;;;;;;;14.28;78.92;101618.88;5030403;28;20044;-72
2021/06/26 04:09:51;;;;;;;26.00;15.48;;;;;;;14.24;79.30;101621.94;5057606;28;20119;-72
2021/06/26 04:12:16;;;;;;;30.55;15.57;;;;;;;14.21;79.07;101623.91;5035271;28;20045;-72
2021/06/26 04:14:42;;;;;;;23.40;14.43;;;;;;;14.20;79.24;101621.44;5049436;28;20025;-72
2021/06/26 04:17:07;;;;;;;22.80;14.90;;;;;;;14.21;79.22;101629.13;5031457;28;20033;-72
2021/06/26 04:19:32;;;;;;;21.80;14.90;;;;;;;14.23;79.33;101622.94;5016271;28;20672;-72
2021/06/26 04:21:58;;;;;;;23.65;14.32;;;;;;;14.25;79.00;101618.38;5047295;28;20499;-73
2021/06/26 04:24:24;;;;;;;23.42;15.18;;;;;;;14.27;79.03;101621.63;5034098;28;20045;-73
2021/06/26 04:26:50;;;;;;;22.45;14.50;;;;;;;14.32;78.92;101617.56;5046887;28;20025;-72
2021/06/26 04:29:15;;;;;;;23.45;15.55;;;;;;;14.36;78.80;101616.28;5047635;28;20541;-72
2021/06/26 04:31:41;;;;;;;29.65;16.73;;;;;;;14.41;78.70;101619.22;5017841;28;20469;-72
2021/06/26 04:34:06;;;;;;;26.42;14.38;;;;;;;14.48;78.64;101608.94;5049452;28;20547;-72
2021/06/26 04:36:31;;;;;;;22.80;13.77;;;;;;;14.54;78.76;101620.53;5048169;28;20047;-72
2021/06/26 04:38:57;;;;;;;24.05;15.25;;;;;;;14.57;78.65;101618.44;5038791;28;20029;-72
2021/06/26 04:41:23;;;;;;;25.90;15.68;;;;;;;14.63;79.12;101624.00;5033644;28;20479;-72
2021/06/26 04:43:49;;;;;;;34.20;18.45;;;;;;;14.67;79.10;101618.28;5044284;28;20044;-72
2021/06/26 04:46:14;;;;;;;26.33;16.85;;;;;;;14.71;79.16;101624.81;5031526;28;20016;-72
2021/06/26 04:48:41;;;;;;;26.92;17.48;;;;;;;14.76;78.93;101621.72;5050933;28;20036;-73
2021/06/26 04:51:07;;;;;;;26.52;17.10;;;;;;;14.82;78.79;101625.47;5034284;28;20028;-72
2021/06/26 04:53:33;;;;;;;28.10;17.15;;;;;;;14.88;78.32;101620.41;5028853;28;20523;-72
2021/06/26 04:55:59;;;;;;;25.80;15.93;;;;;;;14.95;78.28;101626.59;5037147;28;20487;-72
2021/06/26 04:58:25;;;;;;;26.90;17.40;;;;;;;14.98;78.39;101622.84;5048430;28;20033;-72
2021/06/26 05:00:53;;;;;;;28.88;18.17;;;;;;;15.02;78.67;101618.13;5048423;28;20380;-72
2021/06/26 05:03:20;;;;;;;25.70;17.10;;;;;;;15.04;78.80;101616.97;5032162;28;20033;-72
2021/06/26 05:05:46;;;;;;;25.75;16.50;;;;;;;15.09;78.87;101617.28;5026147;28;20052;-72
2021/06/26 05:08:13;;;;;;;25.48;15.95;;;;;;;15.14;78.47;101615.00;5029583;28;20043;-72
2021/06/26 05:10:38;;;;;;;26.33;17.10;;;;;;;15.20;78.80;101618.75;5048749;28;20060;-73
2021/06/26 05:13:05;;;;;;;25.65;15.80;;;;;;;15.26;78.73;101622.50;5043767;28;20111;-72
2021/06/26 05:15:30;;;;;;;25.80;16.35;;;;;;;15.30;78.63;101613.31;5030693;28;20044;-72
2021/06/26 05:17:56;;;;;;;35.65;18.33;;;;;;;15.36;78.45;101629.13;5030448;28;20025;-72
2021/06/26 05:20:21;;;;;;;28.02;17.30;;;;;;;15.44;78.57;101624.88;5024080;28;20039;-72
2021/06/26 05:22:47;;;;;;;30.40;18.50;;;;;;;15.51;78.62;101625.84;5049847;28;20033;-72
2021/06/26 05:25:12;;;;;;;26.60;16.40;;;;;;;15.57;78.55;101625.97;5022977;28;20056;-72
2021/06/26 05:27:38;;;;;;;32.25;16.88;;;;;;;15.67;78.34;101615.34;5022456;28;20396;-72
2021/06/26 05:30:05;;;;;;;34.97;21.70;;;;;;;15.75;77.99;101625.78;5030930;28;20029;-72
2021/06/26 05:32:30;;;;;;;41.03;22.67;;;;;;;15.75;77.60;101628.38;5029018;28;20043;-72
2021/06/26 05:34:55;;;;;;;34.17;22.42;;;;;;;15.70;77.21;101620.19;5030450;28;20029;-73
2021/06/26 05:37:21;;;;;;;38.20;23.35;;;;;;;15.70;77.54;101629.84;5032361;28;20111;-70
2021/06/26 05:39:46;;;;;;;36.90;20.92;;;;;;;15.76;77.51;101619.56;5052903;28;20280;-70
2021/06/26 05:42:12;;;;;;;32.05;20.70;;;;;;;15.94;77.05;101611.47;5026461;28;20022;-70
2021/06/26 05:44:37;;;;;;;37.20;22.38;;;;;;;16.19;76.22;101627.03;5042501;28;20065;-71
2021/06/26 05:47:03;;;;;;;29.70;18.70;;;;;;;16.48;76.15;101628.13;5026528;28;20033;-71
2021/06/26 05:49:29;;;;;;;35.53;21.77;;;;;;;16.83;74.94;101625.94;5029645;28;20029;-71
2021/06/26 05:51:54;;;;;;;32.20;21.63;;;;;;;17.08;74.14;101626.50;5031998;28;20086;-70
2021/06/26 05:54:19;;;;;;;36.78;22.95;;;;;;;17.25;73.13;101627.16;5026267;28;20021;-70
2021/06/26 05:56:45;;;;;;;34.75;22.05;;;;;;;17.43;71.72;101627.63;5036913;28;20483;-70
2021/06/26 05:59:10;;;;;;;33.42;20.92;;;;;;;17.61;71.28;101613.31;5047281;28;20029;-70
2021/06/26 06:01:36;;;;;;;37.00;22.35;;;;;;;17.84;70.76;101618.47;5047878;28;20037;-70
2021/06/26 06:04:02;;;;;;;36.28;23.10;;;;;;;18.00;69.51;101615.63;5050294;28;20339;-70
2021/06/26 06:06:28;;;;;;;35.47;20.77;;;;;;;18.25;68.08;101613.47;5032390;28;20542;-70
2021/06/26 06:08:53;;;;;;;34.90;21.42;;;;;;;18.34;66.55;101611.53;5029721;28;20098;-70
2021/06/26 06:11:19;;;;;;;35.15;21.52;;;;;;;18.52;66.12;101611.09;5029676;28;20103;-70
2021/06/26 06:13:44;;;;;;;35.78;23.85;;;;;;;18.52;66.56;101608.47;5036689;28;20060;-70
2021/06/26 06:16:10;;;;;;;36.40;22.55;;;;;;;18.78;64.74;101615.75;5046893;28;20035;-69
2021/06/26 06:18:35;;;;;;;35.33;22.33;;;;;;;19.02;63.95;101617.19;5055088;28;20483;-70
2021/06/26 06:21:01;;;;;;;36.30;22.33;;;;;;;18.89;62.43;101619.69;5045837;28;20036;-70
2021/06/26 06:23:26;;;;;;;35.22;22.27;;;;;;;19.08;63.00;101622.66;5047583;28;20141;-69
2021/06/26 06:25:53;;;;;;;32.45;19.55;;;;;;;19.33;62.67;101618.56;5047631;28;20071;-70
2021/06/26 06:28:19;;;;;;;32.50;21.70;;;;;;;19.65;61.13;101624.19;5046228;28;20063;-70
2021/06/26 06:30:44;;;;;;;33.55;20.95;;;;;;;19.80;60.35;101630.13;5028820;28;20068;-70
2021/06/26 06:33:10;;;;;;;35.67;21.73;;;;;;;19.96;59.99;101630.78;5027716;28;20024;-69
2021/06/26 06:35:35;;;;;;;30.73;18.08;;;;;;;20.30;58.95;101629.03;5043160;28;20036;-70
2021/06/26 06:38:01;;;;;;;32.00;19.48;;;;;;;20.42;57.93;101630.06;5035978;28;20029;-70
2021/06/26 06:40:27;;;;;;;33.08;19.98;;;;;;;20.56;57.61;101625.63;5018734;28;20041;-70
2021/06/26 06:42:53;;;;;;;31.65;18.52;;;;;;;20.84;57.55;101630.72;5022514;28;21138;-70
2021/06/26 06:45:18;;;;;;;26.88;18.40;;;;;;;21.18;56.05;101629.63;5044697;28;20119;-70
2021/06/26 06:47:44;;;;;;;31.63;18.48;;;;;;;21.35;52.76;101629.19;5050358;28;20499;-70
2021/06/26 06:50:11;;;;;;;25.05;17.63;;;;;;;21.29;53.47;101630.84;5032156;28;20050;-70
2021/06/26 06:52:37;;;;;;;30.92;18.42;;;;;;;21.38;52.35;101637.50;5051491;28;20479;-69
2021/06/26 06:55:04;;;;;;;25.77;15.45;;;;;;;21.48;52.47;101636.28;5025324;28;20028;-69
2021/06/26 06:57:30;;;;;;;25.27;16.60;;;;;;;21.45;52.29;101629.59;5028906;28;20094;-70
2021/06/26 06:59:55;;;;;;;25.25;15.38;;;;;;;21.78;51.83;101636.56;5017702;28;20108;-70
2021/06/26 07:02:21;;;;;;;19.67;14.93;;;;;;;22.37;51.31;101631.19;5054881;28;20376;-71
2021/06/26 07:04:47;;;;;;;22.95;13.68;;;;;;;22.71;50.91;101630.69;5050821;28;20033;-70
2021/06/26 07:07:14;;;;;;;20.92;14.05;;;;;;;23.12;48.63;101626.66;5049884;28;20036;-70
2021/06/26 07:09:39;;;;;;;20.80;14.20;;;;;;;23.18;48.63;101624.19;5050938;28;20055;-70
2021/06/26 07:12:05;;;;;;;17.77;12.38;;;;;;;23.32;48.04;101623.00;5047309;28;20499;-70
2021/06/26 07:14:31;;;;;;;21.20;13.07;;;;;;;23.56;47.57;101621.28;5028812;28;20040;-69
2021/06/26 07:16:57;;;;;;;24.23;14.77;;;;;;;23.43;46.66;101622.28;5031220;28;20281;-69
2021/06/26 07:19:22;;;;;;;20.25;12.73;;;;;;;23.37;47.87;101615.19;5038728;28;20651;-71
2021/06/26 07:21:48;;;;;;;18.85;12.65;;;;;;;23.55;45.81;101624.16;5035318;28;20045;-70
2021/06/26 07:24:13;;;;;;;21.85;12.63;;;;;;;23.69;45.91;101629.03;5033099;28;20025;-70
2021/06/26 07:26:39;;;;;;;17.33;12.73;;;;;;;23.96;47.21;101627.91;5050632;28;20086;-70
2021/06/26 07:29:05;;;;;;;14.95;11.00;;;;;;;24.46;46.28;101611.69;5032622;28;20025;-71
2021/06/26 07:31:32;;;;;;;15.15;12.02;;;;;;;24.95;43.38;101611.47;5031950;28;20391;-71
2021/06/26 07:33:58;;;;;;;17.25;11.50;;;;;;;24.98;44.06;101611.81;5025932;28;20043;-70
2021/06/26 07:36:24;;;;;;;18.55;12.60;;;;;;;25.22;44.62;101612.59;5047799;28;20538;-71
2021/06/26 07:38:50;;;;;;;18.80;12.32;;;;;;;24.99;43.94;101609.97;5050293;28;20131;-69
2021/06/26 07:41:15;;;;;;;17.17;10.73;;;;;;;25.02;45.63;101610.31;5011872;28;20025;-70
2021/06/26 07:43:41;;;;;;;15.52;10.75;;;;;;;25.41;44.63;101617.75;5030439;28;20041;-70
2021/06/26 07:46:07;;;;;;;14.93;10.63;;;;;;;25.78;43.62;101610.22;5049877;28;20025;-71
2021/06/26 07:48:33;;;;;;;15.30;11.20;;;;;;;25.69;42.39;101608.19;5019819;28;20570;-70
2021/06/26 07:50:58;;;;;;;13.60;9.80;;;;;;;25.86;43.41;101605.56;5058867;28;20227;-70
2021/06/26 07:53:24;;;;;;;17.48;12.50;;;;;;;25.78;42.36;101607.56;5032241;28;20082;-70
2021/06/26 07:55:53;;;;;;;17.20;11.60;;;;;;;25.75;43.32;101605.41;5033314;28;20029;-70
2021/06/26 07:58:23;;;;;;;15.13;11.80;;;;;;;25.73;43.23;101602.19;5048667;28;20116;-70
2021/06/26 08:00:49;;;;;;;16.55;11.23;;;;;;;25.89;43.58;101592.63;5028757;28;20037;-70
2021/06/26 08:03:16;;;;;;;14.40;10.45;;;;;;;26.11;43.24;101598.06;5050044;28;20036;-70
2021/06/26 08:05:41;;;;;;;26.13;12.02;;;;;;;26.34;42.19;101596.31;5025306;28;20076;-70
2021/06/26 08:08:07;;;;;;;12.85;9.40;;;;;;;26.68;42.56;101602.41;5050073;28;20384;-70
2021/06/26 08:10:32;;;;;;;16.95;11.77;;;;;;;26.97;42.06;101599.59;5026508;28;20033;-71
2021/06/26 08:12:58;;;;;;;14.15;11.25;;;;;;;27.10;41.28;101593.09;5049155;28;20120;-70
2021/06/26 08:15:23;;;;;;;15.63;11.85;;;;;;;27.00;40.08;101601.78;5031002;28;20029;-70
2021/06/26 08:17:49;;;;;;;17.73;12.68;;;;;;;26.41;41.84;101596.94;5031215;28;20129;-70
2021/06/26 08:20:14;;;;;;;18.70;13.05;;;;;;;26.57;42.27;101598.75;5049288;28;20036;-70
2021/06/26 08:22:40;;;;;;;19.63;13.82;;;;;;;26.74;42.64;101593.44;5023358;28;20029;-70
2021/06/26 08:25:06;;;;;;;17.80;12.20;;;;;;;27.05;41.84;101587.72;5030883;28;20478;-71
2021/06/26 08:27:32;;;;;;;16.67;13.73;;;;;;;27.08;41.15;101589.88;5031430;28;20040;-70
2021/06/26 08:29:58;;;;;;;22.33;13.20;;;;;;;26.91;41.14;101598.72;5047734;28;20032;-70
2021/06/26 08:32:23;;;;;;;24.55;14.07;;;;;;;26.83;41.12;101593.03;5031327;28;20032;-70
2021/06/26 08:34:49;;;;;;;22.13;16.85;;;;;;;26.66;40.60;101593.06;5049326;28;20107;-69
2021/06/26 08:37:14;;;;;;;21.70;14.68;;;;;;;26.93;41.10;101588.63;5023557;28;20028;-69
2021/06/26 08:39:40;;;;;;;22.42;15.75;;;;;;;26.69;41.00;101595.22;5047879;28;20124;-70
2021/06/26 08:42:07;;;;;;;23.52;16.92;;;;;;;26.72;39.96;101592.09;5030033;28;20032;-70
2021/06/26 08:44:33;;;;;;;18.58;14.27;;;;;;;26.61;40.37;101596.44;5030405;28;20048;-70
2021/06/26 08:47:00;;;;;;;19.33;13.98;;;;;;;26.51;40.17;101596.28;5043153;28;20123;-70
2021/06/26 08:49:26;;;;;;;23.27;14.25;;;;;;;26.79;40.27;101598.03;5033003;28;20397;-70
2021/06/26 08:51:52;;;;;;;23.00;16.25;;;;;;;26.73;41.22;101591.84;5035506;28;20037;-71
2021/06/26 08:54:18;;;;;;;24.25;15.93;;;;;;;27.04;40.89;101594.09;5038755;28;20479;-70
2021/06/26 08:56:45;;;;;;;21.25;15.27;;;;;;;26.98;39.81;101606.53;5048385;28;20069;-69
2021/06/26 08:59:11;;;;;;;24.52;15.85;;;;;;;27.13;39.85;101592.63;5029551;28;20048;-70
2021/06/26 09:01:39;;;;;;;20.67;14.73;;;;;;;27.49;39.55;101593.03;5058797;28;20045;-70
2021/06/26 09:04:19;;;;;;;19.83;14.48;;;;;;;27.46;40.69;101590.88;5044862;28;20037;-70
2021/06/26 09:06:52;;;;;;;25.15;15.00;;;;;;;27.15;40.74;101596.63;5045580;28;20036;-69
2021/06/26 09:09:29;;;;;;;22.88;14.57;;;;;;;26.94;40.47;101590.25;5029041;28;20025;-70
2021/06/26 09:12:20;;;;;;;20.25;14.85;;;;;;;27.11;41.55;101592.06;5043067;28;20086;-70
2021/06/26 09:14:45;;;;;;;18.73;13.93;;;;;;;27.55;41.25;101592.03;5045795;28;20033;-70
2021/06/26 09:17:12;;;;;;;15.02;11.68;;;;;;;27.83;39.67;101590.19;5029270;28;20025;-70
2021/06/26 09:19:38;;;;;;;19.23;12.75;;;;;;;27.67;39.53;101594.53;5031237;28;20098;-70
2021/06/26 09:22:10;;;;;;;15.98;11.82;;;;;;;27.89;40.55;101591.84;5025861;28;20036;-70
2021/06/26 09:24:43;;;;;;;22.58;13.73;;;;;;;27.42;40.49;101595.09;5031040;28;20037;-69
2021/06/26 09:27:11;;;;;;;18.73;11.95;;;;;;;27.85;40.67;101598.72;5047251;28;20047;-70
2021/06/26 09:29:53;;;;;;;13.48;11.32;;;;;;;27.96;39.21;101587.13;5029846;28;20045;-70
2021/06/26 09:32:26;;;;;;;16.67;10.98;;;;;;;28.22;39.14;101588.13;5009601;28;20067;-71
2021/06/26 09:34:53;;;;;;;13.00;10.52;;;;;;;28.15;38.31;101580.34;5028695;28;20029;-71
2021/06/26 09:37:33;;;;;;;14.00;10.75;;;;;;;28.08;39.88;101589.59;5048034;28;20091;-70
2021/06/26 09:40:01;;;;;;;14.48;11.80;;;;;;;28.08;39.42;101590.41;5029235;28;20134;-71
2021/06/26 09:42:39;;;;;;;15.57;10.82;;;;;;;28.29;38.56;101587.91;5029721;28;20033;-70
2021/06/26 09:45:07;;;;;;;14.75;10.32;;;;;;;28.57;39.20;101589.44;5031985;28;20029;-70
2021/06/26 09:47:33;;;;;;;11.73;9.27;;;;;;;28.73;38.45;101585.78;5024002;28;20530;-71
2021/06/26 09:50:08;;;;;;;13.65;8.75;;;;;;;28.88;36.94;101584.28;5029784;28;20239;-70
2021/06/26 09:53:00;;;;;;;16.05;10.80;;;;;;;28.88;38.54;101582.41;5030245;28;20175;-71
2021/06/26 09:55:39;;;;;;;14.73;11.45;;;;;;;28.46;36.99;101588.56;5036668;28;20526;-70
2021/06/26 09:58:13;;;;;;;18.77;11.10;;;;;;;28.45;39.00;101588.81;5028515;28;20036;-71
2021/06/26 10:00:43;;;;;;;13.45;9.85;;;;;;;28.56;37.30;101587.03;5043195;28;20101;-71
2021/06/26 10:03:15;;;;;;;13.85;9.85;;;;;;;28.54;36.13;101587.31;5048180;28;20079;-70
2021/06/26 10:05:44;;;;;;;14.85;9.98;;;;;;;28.45;37.11;101586.94;5026449;28;20029;-70
2021/06/26 10:08:10;;;;;;;12.48;8.65;;;;;;;28.51;36.37;101590.44;5028608;28;20067;-70
2021/06/26 10:10:35;;;;;;;15.35;10.00;;;;;;;28.70;36.53;101588.19;5047256;28;20036;-71
2021/06/26 10:13:01;;;;;;;18.67;9.43;;;;;;;28.71;36.70;101581.78;5007527;28;20029;-70
2021/06/26 10:15:30;;;;;;;14.02;8.20;;;;;;;28.96;36.24;101578.44;5026083;28;20033;-70
2021/06/26 10:17:56;;;;;;;14.27;8.90;;;;;;;29.06;34.85;101580.31;5029701;28;20041;-70
2021/06/26 10:20:24;;;;;;;11.43;6.60;;;;;;;28.92;33.02;101580.03;5028447;28;20073;-70
2021/06/26 10:22:59;;;;;;;10.40;6.13;;;;;;;28.93;32.67;101582.44;5031581;28;20187;-71
2021/06/26 10:25:30;;;;;;;13.00;8.70;;;;;;;28.73;33.87;101572.47;5032787;28;20037;-69
2021/06/26 10:28:10;;;;;;;12.07;7.47;;;;;;;28.36;33.83;101564.47;5051240;28;20094;-70
2021/06/26 10:30:36;;;;;;;10.90;7.90;;;;;;;28.40;34.94;101570.91;5034357;28;20051;-71
2021/06/26 10:33:04;;;;;;;11.63;7.88;;;;;;;28.58;35.58;101563.59;5051561;28;20112;-70
2021/06/26 10:35:32;;;;;;;15.48;10.27;;;;;;;28.28;33.82;101556.97;5034904;28;20028;-70
2021/06/26 10:38:06;;;;;;;14.35;8.90;;;;;;;28.41;34.81;101556.53;5052020;28;20422;-70
2021/06/26 10:40:45;;;;;;;13.32;8.75;;;;;;;28.48;33.29;101556.28;5048216;28;20037;-70
2021/06/26 10:43:21;;;;;;;12.88;8.13;;;;;;;28.30;34.26;101558.31;5050129;28;20063;-69
2021/06/26 10:45:48;;;;;;;17.15;9.77;;;;;;;28.24;36.35;101566.56;5015293;28;20049;-70
2021/06/26 10:48:23;;;;;;;15.20;9.55;;;;;;;28.46;36.02;101551.22;5049728;28;20029;-70
2021/06/26 10:50:55;;;;;;;12.88;10.27;;;;;;;28.67;36.67;101551.34;5033318;28;20422;-71
2021/06/26 10:53:35;;;;;;;14.27;9.35;;;;;;;28.62;36.24;101560.13;5053029;28;20471;-70
2021/06/26 10:56:06;;;;;;;16.15;10.73;;;;;;;28.50;35.62;101562.97;5032355;28;20071;-70
2021/06/26 10:58:37;;;;;;;13.65;9.10;;;;;;;28.78;35.33;101555.66;5049620;28;20060;-71
2021/06/26 11:01:23;;;;;;;14.27;9.60;;;;;;;28.91;35.77;101557.88;5042488;28;20067;-70
2021/06/26 11:03:51;;;;;;;16.63;9.45;;;;;;;28.58;35.92;101556.38;5039039;28;20044;-71
2021/06/26 11:06:27;;;;;;;16.83;9.35;;;;;;;28.47;36.59;101555.47;5045926;28;20037;-70
2021/06/26 11:09:05;;;;;;;14.75;10.40;;;;;;;27.73;35.48;101561.59;5048149;28;20153;-69